Welcome to the Belnet public FTP server ftp.belnet.be !

This server is located in Brussels, Belgium and operated by Belnet, the
Belgian Education and Research Network. If you have any problem, question or
mirror request, please send them to ftpmaint@belnet.be.

This archive is available through the following means:

HTTP http://ftp.belnet.be (IPv4 + IPv6)
FTP ftp://ftp.belnet.be (IPv4 + IPv6)
RSYNC rsync://rsync.belnet.be (IPv4)

Note: opening too many parallel connections to this host is considered an abuse.
All access is logged.


/ubuntu.com/ubuntu/ubuntu/pool/main/k/

File Name  ↓ File Size  ↓ Date  ↓ 
Parent directory/--
k3b-i18n/-2013-Sep-12 17:07
kaccessible/-2021-May-27 16:04
kactivities/-2021-May-27 16:04
kadu/-2007-Jun-05 08:35
kalgebra/-2021-May-27 16:04
kalzium/-2021-May-27 16:04
kamera/-2021-May-27 16:04
kanagram/-2021-May-27 16:04
kasumi/-2011-Nov-19 10:31
katapult/-2013-Sep-12 17:07
kate/-2021-May-27 16:04
kazehakase/-2010-Jul-24 15:43
kbd-chooser/-2011-Jul-08 19:34
kbluetooth/-2016-Jun-29 19:56
kbruch/-2021-May-27 16:04
kcalc/-2021-May-27 16:04
kcharselect/-2021-May-27 16:04
kcm-gtk/-2021-May-27 16:04
kcm-touchpad/-2016-Jun-29 19:56
kcolorchooser/-2021-May-27 16:04
kcoloredit-kde4/-2013-Sep-12 17:07
kde-base-artwork/-2012-Aug-03 15:07
kde-baseapps/-2021-May-27 16:04
kde-guidance/-2013-Sep-12 17:07
kde-i18n-af/-2013-Sep-12 17:07
kde-i18n-ar/-2013-Sep-12 17:07
kde-i18n-az/-2013-Sep-12 17:07
kde-i18n-be/-2013-Sep-12 17:07
kde-i18n-bg/-2013-Sep-12 17:07
kde-i18n-bn/-2013-Sep-12 17:07
kde-i18n-br/-2013-Sep-12 17:07
kde-i18n-bs/-2013-Sep-12 17:07
kde-i18n-ca/-2013-Sep-12 17:07
kde-i18n-cs/-2013-Sep-12 17:07
kde-i18n-csb/-2013-Sep-12 17:07
kde-i18n-cy/-2013-Sep-12 17:07
kde-i18n-da/-2013-Sep-12 17:07
kde-i18n-de/-2013-Sep-12 17:07
kde-i18n-el/-2013-Sep-12 17:07
kde-i18n-engb/-2013-Sep-12 17:07
kde-i18n-eo/-2013-Sep-12 17:07
kde-i18n-es/-2013-Sep-12 17:07
kde-i18n-et/-2013-Sep-12 17:07
kde-i18n-eu/-2013-Sep-12 17:07
kde-i18n-fa/-2013-Sep-12 17:07
kde-i18n-fi/-2013-Sep-12 17:07
kde-i18n-fr/-2013-Sep-12 17:07
kde-i18n-fy/-2013-Sep-12 17:07
kde-i18n-ga/-2013-Sep-12 17:07
kde-i18n-gl/-2013-Sep-12 17:07
kde-i18n-he/-2013-Sep-12 17:07
kde-i18n-hi/-2013-Sep-12 17:07
kde-i18n-hr/-2013-Sep-12 17:07
kde-i18n-hsb/-2013-Sep-12 17:07
kde-i18n-hu/-2013-Sep-12 17:07
kde-i18n-is/-2013-Sep-12 17:07
kde-i18n-it/-2013-Sep-12 17:07
kde-i18n-ja/-2013-Sep-12 17:07
kde-i18n-kk/-2013-Sep-12 17:07
kde-i18n-km/-2013-Sep-12 17:07
kde-i18n-ko/-2013-Sep-12 17:07
kde-i18n-lt/-2013-Sep-12 17:07
kde-i18n-lv/-2013-Sep-12 17:07
kde-i18n-mk/-2013-Sep-12 17:07
kde-i18n-mn/-2013-Sep-12 17:07
kde-i18n-ms/-2013-Sep-12 17:07
kde-i18n-nb/-2013-Sep-12 17:07
kde-i18n-nds/-2013-Sep-12 17:07
kde-i18n-nl/-2013-Sep-12 17:07
kde-i18n-nn/-2013-Sep-12 17:07
kde-i18n-pa/-2013-Sep-12 17:07
kde-i18n-pl/-2013-Sep-12 17:07
kde-i18n-pt/-2013-Sep-12 17:07
kde-i18n-ptbr/-2013-Sep-12 17:07
kde-i18n-ro/-2013-Sep-12 17:07
kde-i18n-ru/-2013-Sep-12 17:07
kde-i18n-rw/-2013-Sep-12 17:07
kde-i18n-se/-2013-Sep-12 17:07
kde-i18n-sk/-2013-Sep-12 17:07
kde-i18n-sl/-2013-Sep-12 17:07
kde-i18n-sr/-2013-Sep-12 17:07
kde-i18n-srlatn/-2013-Sep-12 17:07
kde-i18n-ss/-2013-Sep-12 17:07
kde-i18n-sv/-2013-Sep-12 17:07
kde-i18n-ta/-2013-Sep-12 17:07
kde-i18n-te/-2013-Sep-12 17:07
kde-i18n-tg/-2013-Sep-12 17:07
kde-i18n-th/-2013-Sep-12 17:07
kde-i18n-tr/-2013-Sep-12 17:07
kde-i18n-uk/-2013-Sep-12 17:07
kde-i18n-uz/-2013-Sep-12 17:07
kde-i18n-vi/-2013-Sep-12 17:07
kde-i18n-wa/-2013-Sep-12 17:07
kde-i18n-zhcn/-2013-Sep-12 17:07
kde-i18n-zhtw/-2013-Sep-12 17:07
kde-i18n/-2007-Jun-05 12:41
kde-l10n-af/-2011-Nov-19 10:31
kde-l10n-ar/-2021-May-27 16:04
kde-l10n-as/-2011-Nov-19 10:31
kde-l10n-be-latin/-2011-Nov-19 10:31
kde-l10n-be/-2013-Sep-12 17:07
kde-l10n-bg/-2021-May-27 16:04
kde-l10n-bn/-2011-Nov-19 10:31
kde-l10n-bnin/-2011-Nov-19 10:31
kde-l10n-br/-2011-Nov-19 10:31
kde-l10n-bs/-2021-May-27 16:04
kde-l10n-ca-valencia/-2021-May-27 16:04
kde-l10n-ca/-2021-May-27 16:04
kde-l10n-crh/-2011-Nov-19 10:31
kde-l10n-cs/-2021-May-27 16:04
kde-l10n-csb/-2021-May-27 16:04
kde-l10n-cy/-2011-Nov-19 10:31
kde-l10n-da/-2021-May-27 16:04
kde-l10n-de/-2021-May-27 16:04
kde-l10n-el/-2021-May-27 16:04
kde-l10n-engb/-2021-May-27 16:04
kde-l10n-eo/-2021-May-27 16:04
kde-l10n-es/-2021-May-27 16:04
kde-l10n-et/-2021-May-27 16:04
kde-l10n-eu/-2021-May-27 16:04
kde-l10n-fa/-2021-May-27 16:04
kde-l10n-fi/-2021-May-27 16:04
kde-l10n-fr/-2021-May-27 16:04
kde-l10n-fy/-2021-May-27 16:04
kde-l10n-ga/-2021-May-27 16:04
kde-l10n-gl/-2021-May-27 16:04
kde-l10n-gu/-2021-May-27 16:04
kde-l10n-ha/-2011-Nov-19 10:31
kde-l10n-he/-2021-May-27 16:04
kde-l10n-hi/-2021-May-27 16:04
kde-l10n-hne/-2011-Nov-19 10:31
kde-l10n-hr/-2021-May-27 16:04
kde-l10n-hsb/-2011-Nov-19 10:31
kde-l10n-hu/-2021-May-27 16:04
kde-l10n-hy/-2011-Nov-19 10:31
kde-l10n-ia/-2021-May-27 16:04
kde-l10n-id/-2021-May-27 16:04
kde-l10n-is/-2021-May-27 16:04
kde-l10n-it/-2021-May-27 16:04
kde-l10n-ja/-2021-May-27 16:04
kde-l10n-ka/-2011-Nov-19 10:31
kde-l10n-kk/-2021-May-27 16:04
kde-l10n-km/-2021-May-27 16:04
kde-l10n-kn/-2021-May-27 16:04
kde-l10n-ko/-2021-May-27 16:04
kde-l10n-ku/-2011-Nov-19 10:31
kde-l10n-lb/-2009-Oct-01 05:37
kde-l10n-lt/-2021-May-27 16:04
kde-l10n-lv/-2021-May-27 16:04
kde-l10n-mai/-2021-May-27 16:04
kde-l10n-mk/-2021-May-27 16:04
kde-l10n-ml/-2021-May-27 16:04
kde-l10n-mr/-2011-Nov-19 10:31
kde-l10n-ms/-2011-Nov-19 10:31
kde-l10n-nb/-2021-May-27 16:04
kde-l10n-nds/-2021-May-27 16:04
kde-l10n-ne/-2013-Sep-12 17:07
kdf/-2021-May-27 16:04
kde-l10n-nl/-2021-May-27 16:04
kde-l10n-nn/-2021-May-27 16:04
kde-l10n-oc/-2011-Nov-19 10:31
kde-l10n-or/-2011-Nov-19 10:31
kde-l10n-pa/-2021-May-27 16:04
kde-l10n-pl/-2021-May-27 16:04
kde-l10n-ps/-2009-Oct-01 05:37
kde-l10n-pt/-2021-May-27 16:04
kde-l10n-ptbr/-2021-May-27 16:04
kde-l10n-ro/-2021-May-27 16:04
kde-l10n-ru/-2021-May-27 16:04
kde-l10n-rw/-2011-Nov-19 10:31
kde-l10n-se/-2013-Sep-12 17:07
kde-l10n-si/-2021-May-27 16:04
kde-l10n-sk/-2021-May-27 16:04
kde-l10n-sl/-2021-May-27 16:04
kde-l10n-sr-latin/-2011-Nov-19 10:31
kde-l10n-sr/-2021-May-27 16:04
kde-l10n-sv/-2021-May-27 16:04
kde-l10n-ta/-2011-Nov-19 10:31
kde-l10n-te/-2011-Nov-19 10:31
kde-l10n-tg/-2021-May-27 16:04
kde-l10n-th/-2021-May-27 16:04
kde-l10n-tr/-2021-May-27 16:04
kde-l10n-ug/-2021-May-27 16:04
kde-l10n-uk/-2021-May-27 16:04
kde-l10n-uz-cyrillic/-2011-Nov-19 10:31
kde-l10n-uz/-2011-Nov-19 10:31
kde-l10n-vi/-2021-May-27 16:04
kde-l10n-wa/-2021-May-27 16:04
kde-l10n-xh/-2011-Nov-19 10:31
kde-l10n-zhcn/-2021-May-27 16:04
kde-l10n-zhhk/-2011-Nov-19 10:31
kde-l10n-zhtw/-2021-May-27 16:04
kde-runtime/-2021-May-27 16:04
kde-style-domino/-2007-Dec-07 16:54
kde-style-lipstik/-2011-Jul-08 19:34
kde-style-polyester/-2013-Sep-12 17:07
kde-style-qtcurve/-2016-Jun-29 19:56
kde-systemsettings/-2013-Sep-12 17:07
kde-wallpapers/-2021-May-27 16:04
kde-workspace/-2021-May-27 16:04
kde3bindings/-2016-Jun-29 19:56
kde4artwork/-2007-Aug-14 10:47
kde4bindings/-2010-Nov-03 13:31
kde4pim/-2008-Jun-19 00:58
kdeaccessibility-kde4/-2013-Sep-12 17:07
kdeaccessibility/-2016-Jun-29 19:56
kdeaddons/-2013-Sep-12 17:07
kdeadmin-kde4/-2013-Sep-12 17:07
kdeadmin/-2021-May-27 16:04
kdeartwork-kde4/-2013-Sep-12 17:07
kdeartwork/-2021-May-27 16:04
kdebase-kde4/-2013-Sep-12 17:07
kdebase-runtime/-2016-Jun-29 19:56
kdebase-workspace/-2016-Jun-29 19:56
kdebase/-2016-Jun-29 19:56
kdebindings-kde4/-2013-Sep-12 17:07
kdebindings/-2016-Jun-29 19:56
kdebluetooth/-2013-Sep-12 17:07
kdeedu-kde4/-2013-Sep-12 17:07
kdeedu/-2016-Jun-29 19:56
kdegames-kde4/-2013-Sep-12 17:07
kdegames/-2021-May-27 16:04
kdegraphics-kde4/-2013-Sep-12 17:07
kdegraphics-mobipocket/-2021-May-27 16:04
kdegraphics-strigi-analyzer/-2021-May-27 16:04
kdegraphics-thumbnailers/-2021-May-27 16:04
kdegraphics/-2016-Jun-29 19:56
kdelibs-experimental/-2011-Nov-19 10:31
kdelibs/-2016-Jun-29 19:56
kdemultimedia-kde4/-2013-Sep-12 17:07
kdemultimedia/-2021-May-27 16:04
kdenetwork-kde4/-2013-Sep-12 17:07
kdenetwork/-2021-May-27 16:04
kdepim-kde4/-2007-Nov-23 17:52
kdepim-runtime/-2021-May-27 16:04
kdepim/-2021-May-27 16:04
kdepimlibs/-2021-May-27 16:04
kdeplasma-addons/-2021-May-27 16:04
kdeplasmoids/-2008-Aug-02 10:53
kdesdk-kde4/-2013-Sep-12 17:07
kdesdk/-2021-May-27 16:04
kdesudo-kde4/-2013-Sep-12 17:07
kdesudo/-2021-May-27 16:04
kdetoys-kde4/-2013-Sep-12 17:07
kdetoys/-2021-May-27 16:04
kdeutils-kde4/-2013-Sep-12 17:07
kdeutils/-2016-Jun-29 19:56
kdevelop/-2016-Jun-29 19:56
kdevplatform/-2016-Jun-29 19:56
kdewebdev-kde4/-2013-Sep-12 17:07
kdewebdev/-2021-May-27 16:04
keep/-2016-Jun-29 19:56
kernel-package/-2016-Jun-29 19:56
kfax-kde4/-2013-Sep-12 17:07
kgamma/-2021-May-27 16:04
kgeography/-2021-May-27 16:04
kgpg/-2021-May-27 16:04
kgrab-kde4/-2013-Sep-12 17:07
kgrubeditor/-2010-Nov-03 13:32
khangman/-2021-May-27 16:04
kiconedit-kde4/-2013-Sep-12 17:07
kig/-2021-May-27 16:04
kino/-2013-Sep-12 17:07
kio-apt/-2013-Sep-12 17:07
kio-gopher-kde4/-2013-Sep-12 17:07
kio-locate/-2013-Sep-12 17:07
kio-umountwrapper/-2013-Sep-12 17:07
kiosktool/-2013-Sep-12 17:07
kipi-plugins/-2016-Jun-29 19:56
klettres/-2021-May-27 16:04
kmag/-2021-May-27 16:04
kmix/-2012-Aug-02 17:05
kmobiletools/-2016-Jun-29 19:56
kmousetool/-2021-May-27 16:04
kmouth/-2021-May-27 16:04
kmozillahelper/-2016-Jun-29 19:56
kmplayer/-2013-Sep-12 17:07
kmplot/-2021-May-27 16:04
knetworkconf/-2007-Jun-07 13:17
knetworkmanager/-2013-Sep-12 17:07
koffice-l10n/-2021-May-27 16:04
koffice/-2016-Jun-29 19:56
koffice2/-2010-Nov-03 13:32
kolourpaint/-2021-May-27 16:04
kompozer/-2009-Feb-14 12:49
konq-plugins/-2016-Jun-29 19:56
konserve/-2007-Jun-07 13:17
konsole/-2021-May-27 16:04
konversation/-2021-May-27 16:04
kopete-facebook/-2009-Oct-07 15:39
kopete/-2011-Jul-08 19:34
korundum/-2011-Aug-20 08:12
kpackagekit/-2016-Jun-29 19:56
krb4/-2007-Jun-07 13:17
kpovmodeler-kde4/-2013-Sep-12 17:07
kpovmodeler/-2010-Nov-03 13:32
kremotecontrol/-2021-May-27 16:04
krita-plugins/-2009-Apr-22 11:50
kross-interpreters/-2021-May-27 16:04
kruler/-2021-May-27 16:04
ksaneplugin/-2021-May-27 16:04
kscd/-2012-Aug-02 11:59
ksnapshot/-2021-May-27 16:04
ksplash-engine-moodin/-2013-Sep-12 17:07
kstars/-2021-May-27 16:04
ksudoku/-2013-Sep-12 17:07
ksymoops/-2007-Jun-01 15:38
ksystemlog/-2013-Sep-12 17:07
kthinkbat/-2013-Sep-12 17:07
ktimer/-2021-May-27 16:04
ktorrent/-2021-May-27 16:04
ktouch/-2021-May-27 16:04
ktp-accounts-kcm/-2012-Apr-12 03:34
ktp-approver/-2012-Apr-12 06:04
ktp-auth-handler/-2012-Apr-12 04:34
ktp-common-internals/-2012-Apr-12 06:04
ktp-contact-applet/-2012-Apr-12 04:34
ktp-contact-list/-2012-Apr-15 07:27
ktp-filetransfer-handler/-2012-Apr-12 06:04
ktp-kded-integration-module/-2012-Apr-12 06:04
ktp-presence-applet/-2012-Apr-12 06:04
ktp-send-file/-2012-Apr-12 06:04
ktp-text-ui/-2012-Apr-12 07:02
kturtle/-2021-May-27 16:04
kubuntu-debug-installer/-2021-May-27 16:04
kubuntu-default-settings/-2021-May-27 16:04
kubuntu-docs/-2021-May-27 16:04
kubuntu-firefox-installer/-2021-May-27 16:04
kubuntu-konqueror-shortcuts/-2016-Jun-29 19:56
kubuntu-meta/-2021-May-27 16:04
kubuntu-mobile-default-settings/-2012-Dec-21 17:34
kubuntu-mobile-meta/-2011-Mar-19 13:32
kubuntu-netbook-default-settings/-2021-May-27 16:04
kubuntu-notification-helper/-2021-May-27 16:04
kubuntu-web-shortcuts/-2021-May-27 16:04
kvkbd/-2021-May-27 16:04
kvm/-2013-Sep-12 17:07
kwallet/-2021-May-27 16:04
kwin-style-crystal/-2013-Sep-12 17:07
kwordquiz/-2021-May-27 16:04
kynaptic/-2007-Jun-05 12:41
k3b/-2016-Nov-02 07:23
kamoso/-2011-Sep-20 05:47
kaffeine/-2016-Nov-01 08:15
kboot-installer/-2018-Jan-23 09:07
kickseed/-2016-Nov-02 12:52
keymapper/-2016-Nov-01 01:14
kdump-tools/-2021-Aug-26 06:14
kopete-message-indicator/-2016-Nov-01 08:15
konwert/-2016-Nov-01 08:15
kazoo/-2020-Dec-29 23:34
kbd/-2021-Oct-07 18:49
keepalived/-2021-Aug-12 15:29
kerberos-configs/-2021-Jul-27 15:13
kernel-wedge/-2018-Jan-19 09:26
kerneloops/-2021-Oct-08 07:29
kexec-tools/-2021-Jul-21 00:17
keyrings.alt/-2020-Jul-13 08:50
keyutils/-2021-Oct-07 18:49
khronos-opencl-clhpp/-2021-Jan-09 18:18
khronos-opencl-headers/-2021-Jan-06 12:19
kombu/-2021-Oct-22 09:18
kronosnet/-2021-Oct-19 11:15
keystone/-2021-Oct-20 18:15
klibc/-2021-Aug-10 18:14
kmod/-2021-Jun-25 18:15
kde4libs/-2018-Jan-22 08:50
krb5/-2021-Oct-19 11:15